Time;durP1;ratioP1;P1;durP2;ratioP2;P2;SDS_P1;SDS_P2;PMS_P1;PMS_P2;Temp;Humidity;BMP_temperature;BMP_pressure;BME280_temperature;BME280_humidity;BME280_pressure;Samples;Min_cycle;Max_cycle;Signal;HPM_P1;HPM_P2
2021/08/05 00:01:03;;;;;;;4.38;2.65;;;13.10;99.90;;;;;;5034698;28;20018;-41
2021/08/05 00:03:29;;;;;;;3.75;2.60;;;13.00;99.90;;;;;;5034643;28;20060;-45
2021/08/05 00:05:54;;;;;;;3.30;2.55;;;13.00;99.90;;;;;;5033791;28;20033;-41
2021/08/05 00:08:20;;;;;;;3.53;2.88;;;13.00;99.90;;;;;;5034694;28;20041;-41
2021/08/05 00:10:45;;;;;;;3.25;2.40;;;13.00;99.90;;;;;;5034679;28;20419;-41
2021/08/05 00:13:11;;;;;;;2.30;2.10;;;13.10;99.90;;;;;;5034656;28;20029;-40
2021/08/05 00:15:36;;;;;;;2.90;2.10;;;13.10;99.90;;;;;;5034484;28;20056;-41
2021/08/05 00:18:02;;;;;;;3.95;2.85;;;13.10;99.90;;;;;;5034482;28;20025;-41
2021/08/05 00:20:28;;;;;;;5.75;2.60;;;13.10;99.90;;;;;;5032980;28;20021;-41
2021/08/05 00:22:53;;;;;;;5.32;2.88;;;13.10;99.90;;;;;;5034387;28;20029;-41
2021/08/05 00:25:19;;;;;;;3.95;2.65;;;13.10;99.90;;;;;;5034014;28;20532;-41
2021/08/05 00:27:45;;;;;;;2.75;2.20;;;13.20;99.90;;;;;;5034379;28;20033;-43
2021/08/05 00:30:12;;;;;;;2.80;2.08;;;13.20;99.90;;;;;;5034140;28;20022;-42
2021/08/05 00:32:37;;;;;;;4.45;2.85;;;13.30;99.90;;;;;;5034148;28;20026;-41
2021/08/05 00:35:05;;;;;;;4.50;2.17;;;13.30;99.90;;;;;;5033265;28;20425;-43
2021/08/05 00:37:30;;;;;;;2.72;2.08;;;13.40;99.90;;;;;;5034257;28;20033;-41
2021/08/05 00:39:56;;;;;;;2.67;2.22;;;13.30;99.90;;;;;;5034075;28;20030;-41
2021/08/05 00:42:22;;;;;;;3.05;2.00;;;13.30;99.90;;;;;;5034133;28;20025;-42
2021/08/05 00:44:47;;;;;;;4.00;2.40;;;13.40;99.90;;;;;;5032976;28;20105;-42
2021/08/05 00:47:13;;;;;;;5.35;2.33;;;13.40;99.90;;;;;;5033901;28;20076;-42
2021/08/05 00:49:38;;;;;;;4.20;2.40;;;13.40;99.90;;;;;;5032919;28;20068;-41
2021/08/05 00:52:05;;;;;;;4.18;2.33;;;13.40;99.90;;;;;;5033877;28;20480;-43
2021/08/05 00:54:30;;;;;;;3.95;2.10;;;13.50;99.90;;;;;;5033859;28;20586;-41
2021/08/05 00:56:56;;;;;;;2.90;2.10;;;13.50;99.90;;;;;;5033758;28;20017;-41
2021/08/05 00:59:22;;;;;;;4.15;2.13;;;13.50;99.90;;;;;;5033733;28;20022;-43
2021/08/05 01:01:53;;;;;;;2.58;1.80;;;13.50;99.90;;;;;;5033708;28;20047;-41
2021/08/05 01:04:19;;;;;;;3.33;2.10;;;13.50;99.90;;;;;;5033622;28;20053;-41
2021/08/05 01:06:59;;;;;;;2.88;2.22;;;13.60;99.90;;;;;;5032639;28;20033;-41
2021/08/05 01:09:47;;;;;;;8.10;2.67;;;13.60;99.90;;;;;;5033590;28;20515;-41
2021/08/05 01:12:21;;;;;;;4.05;1.95;;;13.60;99.90;;;;;;5033562;28;20045;-41
2021/08/05 01:14:59;;;;;;;5.43;2.33;;;13.70;99.90;;;;;;5033379;28;20018;-41
2021/08/05 01:17:27;;;;;;;3.50;2.30;;;13.60;99.90;;;;;;5033447;28;20030;-42
2021/08/05 01:19:57;;;;;;;3.22;2.10;;;13.60;99.90;;;;;;5032407;28;20022;-41
2021/08/05 01:22:54;;;;;;;2.35;1.90;;;13.70;99.90;;;;;;5033179;28;20415;-42
2021/08/05 01:25:30;;;;;;;1.80;1.70;;;13.70;99.90;;;;;;5033294;28;20385;-41
2021/08/05 01:27:58;;;;;;;2.85;1.70;;;13.70;99.90;;;;;;5033172;28;20027;-41
2021/08/05 01:30:26;;;;;;;4.40;2.33;;;13.70;99.90;;;;;;5033038;28;20060;-41
2021/08/05 01:32:52;;;;;;;2.97;1.80;;;13.70;99.90;;;;;;5032648;28;20068;-41
2021/08/05 01:35:18;;;;;;;3.55;2.22;;;13.70;99.90;;;;;;5032163;28;20385;-41
2021/08/05 01:37:44;;;;;;;3.10;2.28;;;13.70;99.90;;;;;;5033116;28;20022;-41
2021/08/05 01:40:11;;;;;;;3.95;2.40;;;13.70;99.90;;;;;;5032994;28;20017;-41
2021/08/05 01:42:38;;;;;;;3.13;2.00;;;13.60;99.90;;;;;;5033015;28;20025;-42
2021/08/05 01:45:05;;;;;;;4.35;2.33;;;13.70;99.90;;;;;;5032868;28;20028;-41
2021/08/05 01:47:30;;;;;;;2.50;2.22;;;13.80;99.90;;;;;;5032926;28;20021;-41
2021/08/05 01:49:57;;;;;;;4.50;1.85;;;13.80;99.90;;;;;;5032051;28;20532;-43
2021/08/05 01:52:22;;;;;;;4.43;2.17;;;13.70;99.90;;;;;;5032922;28;20047;-41
2021/08/05 01:54:48;;;;;;;3.45;1.95;;;13.80;99.90;;;;;;5032754;28;20120;-41
2021/08/05 01:57:15;;;;;;;4.53;2.67;;;13.80;99.90;;;;;;5032664;28;20033;-41
2021/08/05 01:59:40;;;;;;;6.72;2.40;;;13.80;99.90;;;;;;5032827;28;20355;-41
2021/08/05 02:02:07;;;;;;;2.58;2.13;;;13.80;99.90;;;;;;5032561;28;20022;-41
2021/08/05 02:04:50;;;;;;;3.47;2.35;;;13.70;99.90;;;;;;5031673;28;20053;-40
2021/08/05 02:07:31;;;;;;;2.70;1.95;;;13.70;99.90;;;;;;5032565;28;20091;-42
2021/08/05 02:10:21;;;;;;;2.85;2.33;;;13.70;99.90;;;;;;5032574;28;20480;-42
2021/08/05 02:12:52;;;;;;;3.25;2.10;;;13.70;99.90;;;;;;5032682;28;20109;-43
2021/08/05 02:15:19;;;;;;;5.95;2.30;;;13.60;99.90;;;;;;5031289;28;20025;-40
2021/08/05 02:17:49;;;;;;;2.90;2.20;;;13.70;99.90;;;;;;5032614;28;20028;-43
2021/08/05 02:20:16;;;;;;;2.13;1.92;;;13.70;99.90;;;;;;5031561;28;20029;-42
2021/08/05 02:22:44;;;;;;;13.40;2.50;;;13.60;99.90;;;;;;5032578;28;20079;-41
2021/08/05 02:25:11;;;;;;;4.47;2.65;;;13.60;99.90;;;;;;5032380;28;20030;-41
2021/08/05 02:27:39;;;;;;;3.15;1.85;;;13.60;99.90;;;;;;5032540;28;20503;-42
2021/08/05 02:30:05;;;;;;;3.92;2.15;;;13.50;99.90;;;;;;5032415;28;20037;-41
2021/08/05 02:32:31;;;;;;;2.75;2.00;;;13.50;99.90;;;;;;5032369;28;20033;-41
2021/08/05 02:35:01;;;;;;;3.42;2.00;;;13.40;99.90;;;;;;5030223;28;20411;-45
2021/08/05 02:37:27;;;;;;;2.05;1.85;;;13.40;99.90;;;;;;5031191;28;20029;-46
2021/08/05 02:39:52;;;;;;;3.05;2.00;;;13.40;99.90;;;;;;5032400;28;20507;-43
2021/08/05 02:42:19;;;;;;;3.78;2.15;;;13.40;99.90;;;;;;5033148;28;20067;-41
2021/08/05 02:44:46;;;;;;;4.85;2.67;;;13.40;99.90;;;;;;5036360;28;20029;-40
2021/08/05 02:47:11;;;;;;;4.35;1.90;;;13.30;99.90;;;;;;5036240;28;20104;-41
2021/08/05 02:49:38;;;;;;;2.70;2.28;;;13.30;99.90;;;;;;5033970;28;20461;-43
2021/08/05 02:52:04;;;;;;;3.25;1.80;;;13.20;99.90;;;;;;5036035;28;20026;-43
2021/08/05 02:54:30;;;;;;;2.08;1.80;;;13.10;99.90;;;;;;5036193;28;20035;-41
2021/08/05 02:56:56;;;;;;;4.50;1.80;;;13.10;99.90;;;;;;5036052;28;20474;-41
2021/08/05 02:59:26;;;;;;;3.15;2.15;;;13.10;99.90;;;;;;5036005;28;20060;-43
2021/08/05 03:01:52;;;;;;;2.60;1.85;;;13.00;99.90;;;;;;5036233;28;20060;-41
2021/08/05 03:04:17;;;;;;;3.90;1.95;;;12.90;99.90;;;;;;5035747;28;20056;-41
2021/08/05 03:06:45;;;;;;;2.55;2.10;;;12.90;99.90;;;;;;5034867;28;20524;-41
2021/08/05 03:09:11;;;;;;;2.95;1.88;;;12.90;99.90;;;;;;5035755;28;20053;-41
2021/08/05 03:11:37;;;;;;;3.50;2.13;;;12.80;99.90;;;;;;5035865;28;20061;-41
2021/08/05 03:14:02;;;;;;;2.22;1.63;;;12.90;99.90;;;;;;5035537;28;20037;-41
2021/08/05 03:16:28;;;;;;;2.55;2.00;;;12.80;99.90;;;;;;5035701;28;20024;-41
2021/08/05 03:18:53;;;;;;;3.25;2.22;;;12.80;99.90;;;;;;5035691;28;20108;-41
2021/08/05 03:21:19;;;;;;;2.15;1.67;;;12.80;99.90;;;;;;5034468;28;20160;-40
2021/08/05 03:23:44;;;;;;;3.65;2.20;;;12.80;99.90;;;;;;5035583;28;20388;-41
2021/08/05 03:26:10;;;;;;;3.63;1.63;;;12.80;99.90;;;;;;5035390;28;20033;-41
2021/08/05 03:28:35;;;;;;;2.90;2.47;;;12.70;99.90;;;;;;5035510;28;20026;-41
2021/08/05 03:31:01;;;;;;;2.70;2.08;;;12.70;99.90;;;;;;5035693;28;20029;-41
2021/08/05 03:33:26;;;;;;;4.85;2.33;;;12.70;99.90;;;;;;5035326;28;20083;-41
2021/08/05 03:35:52;;;;;;;2.45;1.90;;;12.70;99.90;;;;;;5034387;28;20470;-42
2021/08/05 03:38:18;;;;;;;2.33;1.83;;;12.70;99.90;;;;;;5035241;28;20464;-41
2021/08/05 03:40:43;;;;;;;3.35;1.95;;;12.70;99.90;;;;;;5035338;28;20161;-42
2021/08/05 03:43:09;;;;;;;3.70;1.75;;;12.70;99.90;;;;;;5035188;28;20411;-41
2021/08/05 03:45:34;;;;;;;3.45;2.17;;;12.80;99.90;;;;;;5035220;28;20040;-41
2021/08/05 03:48:00;;;;;;;3.25;2.30;;;12.80;99.90;;;;;;5035216;28;20157;-41
2021/08/05 03:50:25;;;;;;;5.10;2.25;;;12.90;99.90;;;;;;5033690;28;20472;-41
2021/08/05 03:52:51;;;;;;;2.17;1.75;;;13.00;99.90;;;;;;5034959;28;20033;-41
2021/08/05 03:55:16;;;;;;;6.03;2.30;;;13.00;99.90;;;;;;5034295;28;20068;-41
2021/08/05 03:57:43;;;;;;;3.80;2.22;;;13.10;99.90;;;;;;5034930;28;20060;-41
2021/08/05 04:00:10;;;;;;;4.18;2.38;;;13.20;99.90;;;;;;5034919;28;20029;-41
2021/08/05 04:02:36;;;;;;;8.60;2.38;;;13.30;99.90;;;;;;5032599;28;20476;-41
2021/08/05 04:05:01;;;;;;;2.03;1.75;;;13.40;99.90;;;;;;5033852;28;20041;-41
2021/08/05 04:07:27;;;;;;;2.83;2.10;;;13.50;99.90;;;;;;5034636;28;20025;-43
2021/08/05 04:09:52;;;;;;;4.65;1.40;;;13.60;99.90;;;;;;5034816;28;20530;-41
2021/08/05 04:12:18;;;;;;;3.10;2.10;;;13.70;99.90;;;;;;5034605;28;20079;-41
2021/08/05 04:14:43;;;;;;;3.47;1.63;;;13.80;99.90;;;;;;5034588;28;20173;-41
2021/08/05 04:17:09;;;;;;;3.70;2.45;;;13.90;99.90;;;;;;5034605;28;20076;-41
2021/08/05 04:19:34;;;;;;;2.60;2.20;;;14.00;99.90;;;;;;5033497;28;20071;-42
2021/08/05 04:22:00;;;;;;;4.03;1.92;;;14.30;99.90;;;;;;5034463;28;20529;-41
2021/08/05 04:24:26;;;;;;;2.65;1.85;;;14.70;99.90;;;;;;5034329;28;20038;-41
2021/08/05 04:26:51;;;;;;;1.75;1.65;;;15.00;99.90;;;;;;5034403;28;20033;-41
2021/08/05 04:29:17;;;;;;;2.72;2.10;;;15.20;99.90;;;;;;5034262;28;20044;-41
2021/08/05 04:31:42;;;;;;;4.15;2.40;;;15.40;99.90;;;;;;5045313;28;20052;-42
2021/08/05 04:34:08;;;;;;;3.78;1.90;;;15.90;99.90;;;;;;5053879;28;20037;-41
2021/08/05 04:36:33;;;;;;;2.58;1.98;;;16.40;99.90;;;;;;5052794;28;20067;-41
2021/08/05 04:38:59;;;;;;;5.82;1.92;;;16.80;99.90;;;;;;5053811;28;20071;-41
2021/08/05 04:41:24;;;;;;;4.32;2.35;;;17.20;99.90;;;;;;5053693;28;20050;-41
2021/08/05 04:43:51;;;;;;;4.22;2.25;;;17.50;99.90;;;;;;5053856;28;20460;-42
2021/08/05 04:46:17;;;;;;;2.47;1.90;;;17.60;99.90;;;;;;5053613;28;20024;-41
2021/08/05 04:48:42;;;;;;;4.47;1.92;;;17.70;99.90;;;;;;5052470;28;20392;-44
2021/08/05 04:51:08;;;;;;;2.25;2.00;;;17.90;99.90;;;;;;5052522;28;20468;-42
2021/08/05 04:53:33;;;;;;;10.32;2.92;;;18.30;99.90;;;;;;5053426;28;20048;-42
2021/08/05 04:55:59;;;;;;;2.47;2.28;;;18.90;99.90;;;;;;5053434;28;20028;-43
2021/08/05 04:58:24;;;;;;;4.43;2.13;;;19.50;99.90;;;;;;5053431;28;20392;-43
2021/08/05 05:00:50;;;;;;;2.10;1.90;;;20.00;99.90;;;;;;5053446;28;20021;-41
2021/08/05 05:03:16;;;;;;;2.53;1.85;;;20.40;99.90;;;;;;5053243;28;20041;-42
2021/08/05 05:05:41;;;;;;;3.17;2.30;;;20.70;99.90;;;;;;5050391;28;20515;-43
2021/08/05 05:08:14;;;;;;;3.28;2.05;;;21.00;99.90;;;;;;5053424;28;20108;-42
2021/08/05 05:10:39;;;;;;;2.65;2.10;;;21.40;99.90;;;;;;5053443;28;20021;-42
2021/08/05 05:13:05;;;;;;;3.38;1.98;;;21.70;99.90;;;;;;5053350;28;20071;-43
2021/08/05 05:15:30;;;;;;;3.85;1.90;;;21.70;99.90;;;;;;5053293;28;20021;-43
2021/08/05 05:17:56;;;;;;;2.67;2.47;;;21.90;99.90;;;;;;5053417;28;20139;-41
2021/08/05 05:20:21;;;;;;;3.50;2.40;;;22.20;99.90;;;;;;5052082;28;20060;-42
2021/08/05 05:22:47;;;;;;;3.92;2.50;;;22.50;99.90;;;;;;5053308;28;20021;-41
2021/08/05 05:25:13;;;;;;;4.57;2.20;;;22.80;99.90;;;;;;5050042;28;20496;-41
2021/08/05 05:27:39;;;;;;;2.28;1.98;;;23.20;99.90;;;;;;5053203;28;20115;-42
2021/08/05 05:30:05;;;;;;;2.45;2.05;;;23.40;99.90;;;;;;5053189;28;20039;-42
2021/08/05 05:32:31;;;;;;;2.47;2.10;;;23.90;99.40;;;;;;5053025;28;20025;-44
2021/08/05 05:34:57;;;;;;;3.38;2.47;;;24.00;98.50;;;;;;5051893;28;20102;-42
2021/08/05 05:37:23;;;;;;;2.92;2.40;;;24.10;96.40;;;;;;5052858;28;20028;-42
2021/08/05 05:39:50;;;;;;;3.55;2.50;;;24.70;93.70;;;;;;5053045;28;20138;-42
2021/08/05 05:42:16;;;;;;;3.15;2.45;;;25.20;92.70;;;;;;5052892;28;20052;-42
2021/08/05 05:44:41;;;;;;;3.97;2.10;;;25.60;89.20;;;;;;5052893;28;20612;-42
2021/08/05 05:47:06;;;;;;;2.28;2.05;;;26.10;88.70;;;;;;5052878;28;20039;-44
2021/08/05 05:49:32;;;;;;;4.30;2.65;;;26.10;86.40;;;;;;5051621;28;20059;-42
2021/08/05 05:51:58;;;;;;;3.35;2.72;;;25.90;83.70;;;;;;5052829;28;20066;-42
2021/08/05 05:54:24;;;;;;;3.03;2.72;;;25.80;80.60;;;;;;5052605;28;20082;-42
2021/08/05 05:56:49;;;;;;;4.35;3.15;;;25.80;79.80;;;;;;5052637;28;20461;-42
2021/08/05 05:59:15;;;;;;;4.43;2.70;;;24.90;76.70;;;;;;5049436;28;20036;-43
2021/08/05 06:01:40;;;;;;;3.88;3.28;;;24.40;82.30;;;;;;5050801;28;20052;-44
2021/08/05 06:04:06;;;;;;;3.60;2.70;;;24.40;83.30;;;;;;5050932;28;20045;-42
2021/08/05 06:06:31;;;;;;;3.17;2.88;;;24.70;82.90;;;;;;5050328;28;20029;-44
2021/08/05 06:09:01;;;;;;;3.58;2.67;;;25.00;81.30;;;;;;5052248;28;20464;-44
2021/08/05 06:11:27;;;;;;;2.95;2.60;;;25.00;77.60;;;;;;5052475;28;20029;-43
2021/08/05 06:13:53;;;;;;;4.70;3.50;;;25.20;79.00;;;;;;5052488;28;20100;-42
2021/08/05 06:16:19;;;;;;;5.38;3.17;;;25.40;70.90;;;;;;5052479;28;20468;-42
2021/08/05 06:18:45;;;;;;;3.67;2.95;;;25.60;71.00;;;;;;5058230;28;20452;-44
2021/08/05 06:21:10;;;;;;;5.13;2.63;;;25.80;71.90;;;;;;5058145;28;20040;-42
2021/08/05 06:23:36;;;;;;;3.67;2.72;;;26.50;70.00;;;;;;5058991;28;20024;-43
2021/08/05 06:26:01;;;;;;;3.40;3.10;;;26.90;68.70;;;;;;5059118;28;20520;-42
2021/08/05 06:28:27;;;;;;;3.33;2.58;;;26.80;64.10;;;;;;5058960;28;20100;-42
2021/08/05 06:30:52;;;;;;;4.15;2.53;;;26.70;64.20;;;;;;5059068;28;20036;-44
2021/08/05 06:33:18;;;;;;;4.78;3.00;;;26.60;65.00;;;;;;5058785;28;20033;-42
2021/08/05 06:35:43;;;;;;;5.82;3.40;;;26.40;65.70;;;;;;5058042;28;20112;-42
2021/08/05 06:38:09;;;;;;;3.92;2.80;;;26.40;64.60;;;;;;5059078;28;20029;-44
2021/08/05 06:40:34;;;;;;;3.65;3.00;;;26.60;65.50;;;;;;5058944;28;20388;-43
2021/08/05 06:43:00;;;;;;;3.65;2.95;;;27.00;65.10;;;;;;5059044;28;20036;-43
2021/08/05 06:45:25;;;;;;;3.47;2.60;;;27.10;62.80;;;;;;5058880;28;20365;-43
2021/08/05 06:47:51;;;;;;;6.60;3.40;;;27.00;62.60;;;;;;5058705;28;20155;-43
2021/08/05 06:50:18;;;;;;;4.53;3.58;;;27.10;59.80;;;;;;5058039;28;20158;-44
2021/08/05 06:52:44;;;;;;;3.67;3.28;;;26.90;60.00;;;;;;5056419;28;20059;-44
2021/08/05 06:55:09;;;;;;;4.75;3.40;;;26.40;60.80;;;;;;5056692;28;20025;-43
2021/08/05 06:57:35;;;;;;;4.88;3.10;;;26.00;61.50;;;;;;5057442;28;20465;-42
2021/08/05 07:00:01;;;;;;;3.65;2.70;;;25.60;63.50;;;;;;5054869;28;20654;-45
2021/08/05 07:02:27;;;;;;;6.75;2.95;;;25.40;65.60;;;;;;5057084;28;20021;-43
2021/08/05 07:04:53;;;;;;;2.80;2.60;;;25.50;65.80;;;;;;5056488;28;20053;-42
2021/08/05 07:07:19;;;;;;;3.65;2.83;;;25.30;66.20;;;;;;5057516;28;20033;-44
2021/08/05 07:09:45;;;;;;;3.40;3.00;;;24.90;64.70;;;;;;5057368;28;20400;-44
2021/08/05 07:12:10;;;;;;;3.40;2.80;;;24.30;68.90;;;;;;5057380;28;20079;-44
2021/08/05 07:14:36;;;;;;;4.13;2.80;;;24.10;71.00;;;;;;5057284;28;20403;-46
2021/08/05 07:17:02;;;;;;;3.05;2.40;;;24.10;71.70;;;;;;5057308;28;20017;-43
2021/08/05 07:19:29;;;;;;;5.30;3.38;;;24.00;71.60;;;;;;5056323;28;20025;-43
2021/08/05 07:21:55;;;;;;;3.53;2.47;;;23.80;73.20;;;;;;5057395;28;20040;-42
2021/08/05 07:24:20;;;;;;;3.88;2.92;;;23.60;75.00;;;;;;5057228;28;20029;-42
2021/08/05 07:26:46;;;;;;;3.45;3.03;;;23.40;76.00;;;;;;5057232;28;20108;-43
2021/08/05 07:29:11;;;;;;;3.20;2.90;;;23.30;77.10;;;;;;5054796;28;20029;-42
2021/08/05 07:31:37;;;;;;;5.38;2.70;;;23.20;78.30;;;;;;5051681;28;20028;-46
2021/08/05 07:34:03;;;;;;;2.90;2.55;;;23.30;78.40;;;;;;5053947;28;20303;-43
2021/08/05 07:36:29;;;;;;;3.55;3.00;;;23.50;77.60;;;;;;5053001;28;20025;-42
2021/08/05 07:38:55;;;;;;;4.60;2.70;;;23.60;76.30;;;;;;5053983;28;20028;-45
2021/08/05 07:41:20;;;;;;;5.20;3.00;;;23.70;76.30;;;;;;5053860;28;20027;-42
2021/08/05 07:43:46;;;;;;;6.00;2.88;;;23.80;75.90;;;;;;5053704;28;20495;-42
2021/08/05 07:46:12;;;;;;;4.43;2.97;;;24.00;76.10;;;;;;5053642;28;20091;-44
2021/08/05 07:48:38;;;;;;;3.17;2.78;;;24.20;74.50;;;;;;5053759;28;20091;-42
2021/08/05 07:51:04;;;;;;;3.22;2.92;;;24.50;73.90;;;;;;5052865;28;20068;-42
2021/08/05 07:53:29;;;;;;;3.90;3.10;;;24.60;72.60;;;;;;5053555;28;20591;-42
2021/08/05 07:55:55;;;;;;;5.53;2.90;;;24.90;70.80;;;;;;5053519;28;20035;-44
2021/08/05 07:58:21;;;;;;;6.75;3.10;;;25.30;69.60;;;;;;5053566;28;20483;-41
2021/08/05 08:00:46;;;;;;;6.15;3.55;;;25.80;68.30;;;;;;5053326;28;20057;-42
2021/08/05 08:03:12;;;;;;;5.63;3.28;;;26.10;67.00;;;;;;5054565;28;20433;-42
2021/08/05 08:05:41;;;;;;;4.47;2.80;;;26.40;64.40;;;;;;5053756;28;20204;-43
2021/08/05 08:08:08;;;;;;;4.65;2.70;;;26.40;64.30;;;;;;5054823;28;20032;-42
2021/08/05 08:10:35;;;;;;;3.05;2.63;;;26.70;63.40;;;;;;5054596;28;20029;-42
2021/08/05 08:13:00;;;;;;;5.32;2.67;;;26.70;60.60;;;;;;5054464;28;20024;-42
2021/08/05 08:15:26;;;;;;;3.78;3.22;;;27.00;62.00;;;;;;5054471;28;20029;-42
2021/08/05 08:17:53;;;;;;;3.38;2.50;;;27.40;60.10;;;;;;5054557;28;20021;-42
2021/08/05 08:20:19;;;;;;;4.03;2.30;;;27.60;59.30;;;;;;5053275;28;20036;-42
2021/08/05 08:22:45;;;;;;;3.25;2.70;;;27.60;59.00;;;;;;5054096;28;20043;-42
2021/08/05 08:25:11;;;;;;;5.05;2.70;;;28.10;58.70;;;;;;5054456;28;20040;-42
2021/08/05 08:27:38;;;;;;;5.65;3.08;;;28.60;56.30;;;;;;5054269;28;20029;-43
2021/08/05 08:30:04;;;;;;;3.47;2.80;;;29.20;54.60;;;;;;5054275;28;20071;-42
2021/08/05 08:32:29;;;;;;;4.85;2.95;;;29.30;53.80;;;;;;5054246;28;20036;-42
2021/08/05 08:34:58;;;;;;;3.05;2.50;;;28.80;51.60;;;;;;5052868;28;20380;-40
2021/08/05 08:37:24;;;;;;;3.03;2.60;;;28.60;53.20;;;;;;5054182;28;20052;-42
2021/08/05 08:39:49;;;;;;;2.90;2.65;;;28.30;54.30;;;;;;5053857;28;20484;-40
2021/08/05 08:42:16;;;;;;;4.47;2.70;;;28.30;53.10;;;;;;5054090;28;20037;-43
2021/08/05 08:44:42;;;;;;;4.28;2.40;;;28.90;52.80;;;;;;5053685;28;20338;-42
2021/08/05 08:47:08;;;;;;;3.80;2.28;;;29.30;52.90;;;;;;5052771;28;20040;-44
2021/08/05 08:49:34;;;;;;;3.03;2.17;;;29.40;50.70;;;;;;5052612;28;20558;-40
2021/08/05 08:52:00;;;;;;;3.05;2.30;;;29.30;50.70;;;;;;5053995;28;20048;-40
2021/08/05 08:54:25;;;;;;;3.67;2.53;;;29.20;50.80;;;;;;5053724;28;20392;-41
2021/08/05 08:56:53;;;;;;;2.83;2.13;;;29.60;50.00;;;;;;5053636;28;20423;-40
2021/08/05 08:59:20;;;;;;;3.45;2.38;;;29.80;49.20;;;;;;5053523;28;20024;-40
2021/08/05 09:01:46;;;;;;;3.10;2.80;;;29.90;48.70;;;;;;5053594;28;20029;-40
2021/08/05 09:04:13;;;;;;;2.92;1.92;;;29.90;47.70;;;;;;5051523;28;20056;-42
2021/08/05 09:06:40;;;;;;;3.72;2.40;;;30.00;47.30;;;;;;5053233;28;20028;-40
2021/08/05 09:09:06;;;;;;;3.72;2.03;;;30.20;46.20;;;;;;5053538;28;20376;-40
2021/08/05 09:11:32;;;;;;;2.58;2.17;;;30.40;44.80;;;;;;5053566;28;20071;-40
2021/08/05 09:13:57;;;;;;;3.08;2.00;;;30.80;43.80;;;;;;5053143;28;20475;-41
2021/08/05 09:16:31;;;;;;;3.20;2.25;;;31.30;42.80;;;;;;5053390;28;20033;-41
2021/08/05 09:19:16;;;;;;;4.30;2.17;;;31.30;41.10;;;;;;5053228;28;20021;-40
2021/08/05 09:21:53;;;;;;;2.97;2.30;;;31.40;41.00;;;;;;5053274;28;20021;-40
2021/08/05 09:24:27;;;;;;;3.88;2.50;;;31.70;38.70;;;;;;5053133;28;20107;-44
2021/08/05 09:26:56;;;;;;;3.53;1.92;;;31.10;38.10;;;;;;5053094;28;20017;-40
2021/08/05 09:29:23;;;;;;;5.43;2.75;;;31.50;40.20;;;;;;5053138;28;20377;-41
2021/08/05 09:31:51;;;;;;;3.17;2.85;;;31.80;36.80;;;;;;5053092;28;20033;-42
2021/08/05 09:34:22;;;;;;;3.03;2.53;;;31.30;37.20;;;;;;5051770;28;20025;-41
2021/08/05 09:36:50;;;;;;;3.13;2.40;;;30.90;37.60;;;;;;5052796;28;20025;-41
2021/08/05 09:39:27;;;;;;;2.35;2.00;;;30.80;38.30;;;;;;5053021;28;20441;-42
2021/08/05 09:41:55;;;;;;;2.20;2.00;;;31.30;37.30;;;;;;5052991;28;20060;-41
2021/08/05 09:44:21;;;;;;;2.45;2.25;;;31.50;37.10;;;;;;5053003;28;20127;-40
2021/08/05 09:46:59;;;;;;;4.15;2.20;;;31.30;36.10;;;;;;5052858;28;20025;-40
2021/08/05 09:49:26;;;;;;;2.38;2.17;;;30.50;36.30;;;;;;5051455;28;20067;-41
2021/08/05 09:51:59;;;;;;;3.67;2.45;;;30.00;36.90;;;;;;5052261;28;20032;-40
2021/08/05 09:54:41;;;;;;;1.90;1.80;;;29.90;37.40;;;;;;5052695;28;20025;-40
2021/08/05 09:57:07;;;;;;;2.38;2.08;;;29.90;39.20;;;;;;5052661;28;20091;-40
2021/08/05 09:59:34;;;;;;;2.05;1.85;;;29.60;38.60;;;;;;5052767;28;20099;-40
2021/08/05 10:02:01;;;;;;;4.57;2.10;;;29.40;39.40;;;;;;5052441;28;20132;-40
2021/08/05 10:04:36;;;;;;;2.65;2.05;;;29.40;38.90;;;;;;5051303;28;20509;-40
2021/08/05 10:07:06;;;;;;;4.72;2.50;;;29.10;38.70;;;;;;5052603;28;20025;-40
2021/08/05 10:09:34;;;;;;;2.10;1.90;;;28.80;39.10;;;;;;5052636;28;20083;-42
2021/08/05 10:12:15;;;;;;;5.70;2.20;;;28.70;39.50;;;;;;5052413;28;20494;-40
2021/08/05 10:14:42;;;;;;;2.47;2.28;;;28.60;40.30;;;;;;5052495;28;20029;-40
2021/08/05 10:17:09;;;;;;;2.42;2.22;;;28.60;40.90;;;;;;5052546;28;20029;-41
2021/08/05 10:19:39;;;;;;;2.00;1.90;;;28.70;40.90;;;;;;5051185;28;20476;-40
2021/08/05 10:22:07;;;;;;;2.38;2.17;;;28.60;40.40;;;;;;5052423;28;20356;-40
2021/08/05 10:24:38;;;;;;;2.35;2.10;;;28.30;40.50;;;;;;5052506;28;20469;-41
2021/08/05 10:27:06;;;;;;;4.47;2.38;;;28.10;41.20;;;;;;5052250;28;20491;-43
2021/08/05 10:29:32;;;;;;;2.40;2.20;;;28.10;42.20;;;;;;5052498;28;20077;-42
2021/08/05 10:31:59;;;;;;;2.85;2.33;;;27.70;42.60;;;;;;5052259;28;20025;-43
2021/08/05 10:34:25;;;;;;;4.13;2.38;;;27.20;43.40;;;;;;5051032;28;20055;-43
2021/08/05 10:36:52;;;;;;;2.60;2.40;;;26.60;45.60;;;;;;5050964;28;20450;-42
2021/08/05 10:39:18;;;;;;;3.85;1.98;;;26.30;46.70;;;;;;5052352;28;20053;-40
2021/08/05 10:41:43;;;;;;;2.40;2.20;;;26.10;46.70;;;;;;5052179;28;20021;-40
2021/08/05 10:44:09;;;;;;;3.65;1.80;;;26.00;46.70;;;;;;5052281;28;20461;-42
2021/08/05 10:46:35;;;;;;;2.60;2.38;;;25.90;47.10;;;;;;5052300;28;20556;-42
2021/08/05 10:49:05;;;;;;;3.55;2.33;;;25.90;47.20;;;;;;5052187;28;20029;-42
2021/08/05 10:51:35;;;;;;;2.28;1.88;;;26.00;47.30;;;;;;5051046;28;20029;-42
2021/08/05 10:54:01;;;;;;;1.92;1.80;;;26.00;47.10;;;;;;5051867;28;20128;-42
2021/08/05 10:56:30;;;;;;;2.00;1.67;;;26.10;47.40;;;;;;5052135;28;20536;-42
2021/08/05 10:59:07;;;;;;;3.03;2.42;;;26.20;47.60;;;;;;5052075;28;20078;-42
2021/08/05 11:01:53;;;;;;;3.47;2.40;;;26.00;46.30;;;;;;5052203;28;20021;-42
2021/08/05 11:04:40;;;;;;;3.92;2.03;;;26.10;45.90;;;;;;5051428;28;20456;-40
2021/08/05 11:07:24;;;;;;;2.97;2.08;;;26.40;47.30;;;;;;5055869;28;20024;-42
2021/08/05 11:09:51;;;;;;;1.77;1.67;;;26.40;45.50;;;;;;5055789;28;20392;-40
2021/08/05 11:12:36;;;;;;;1.80;1.70;;;26.50;45.40;;;;;;5055706;28;20079;-42
2021/08/05 11:15:02;;;;;;;5.32;2.20;;;26.60;44.70;;;;;;5055449;28;20025;-41
2021/08/05 11:17:27;;;;;;;3.13;1.98;;;26.40;43.80;;;;;;5055732;28;20036;-42
2021/08/05 11:20:13;;;;;;;2.20;1.88;;;26.30;44.30;;;;;;5054237;28;20017;-41
2021/08/05 11:22:40;;;;;;;2.30;2.10;;;26.50;44.00;;;;;;5055680;28;20451;-40
2021/08/05 11:25:06;;;;;;;3.38;1.95;;;26.50;42.70;;;;;;5055475;28;20033;-43
2021/08/05 11:27:31;;;;;;;2.42;1.88;;;26.50;42.80;;;;;;5055336;28;20031;-41
2021/08/05 11:29:57;;;;;;;3.25;2.20;;;26.50;44.50;;;;;;5055662;28;20033;-44
2021/08/05 11:32:25;;;;;;;3.08;2.08;;;26.40;45.20;;;;;;5055508;28;20025;-40
2021/08/05 11:34:55;;;;;;;4.47;1.92;;;26.30;46.00;;;;;;5053973;28;20412;-40
2021/08/05 11:37:21;;;;;;;2.53;1.75;;;26.30;46.80;;;;;;5055389;28;20021;-44
2021/08/05 11:39:52;;;;;;;3.97;2.10;;;26.30;46.70;;;;;;5055129;28;20025;-41
2021/08/05 11:42:19;;;;;;;2.67;2.47;;;26.20;47.10;;;;;;5055280;28;20078;-42
2021/08/05 11:44:49;;;;;;;2.38;1.98;;;26.00;47.00;;;;;;5055434;28;20203;-40
2021/08/05 11:47:18;;;;;;;8.60;2.05;;;26.10;46.50;;;;;;5055112;28;20104;-40
2021/08/05 11:49:48;;;;;;;2.75;1.90;;;26.20;45.70;;;;;;5053834;28;20075;-44
2021/08/05 11:52:28;;;;;;;1.90;1.63;;;26.00;45.80;;;;;;5054891;28;20025;-40
2021/08/05 11:55:01;;;;;;;3.35;1.83;;;26.00;46.70;;;;;;5054807;28;20099;-42
2021/08/05 11:57:34;;;;;;;4.85;2.08;;;25.80;47.10;;;;;;5055040;28;20112;-41
2021/08/05 12:00:00;;;;;;;2.03;1.92;;;25.60;48.40;;;;;;5054838;28;20071;-40
2021/08/05 12:02:28;;;;;;;2.20;1.73;;;25.60;49.00;;;;;;5054937;28;20056;-42
2021/08/05 12:04:55;;;;;;;3.42;2.03;;;25.50;48.60;;;;;;5053438;28;20095;-43
2021/08/05 12:07:29;;;;;;;2.10;1.90;;;25.70;48.70;;;;;;5052583;28;20053;-42
2021/08/05 12:10:02;;;;;;;1.98;1.58;;;25.70;49.20;;;;;;5050101;28;20032;-42
2021/08/05 12:12:34;;;;;;;2.55;1.77;;;26.00;48.20;;;;;;5032995;28;20030;-40
2021/08/05 12:15:00;;;;;;;2.22;2.03;;;26.10;47.50;;;;;;5033423;28;20457;-40
2021/08/05 12:17:38;;;;;;;3.67;2.13;;;26.20;47.80;;;;;;5034590;28;20052;-44
2021/08/05 12:20:11;;;;;;;4.50;2.13;;;26.00;47.30;;;;;;5033620;28;20031;-41
2021/08/05 12:22:40;;;;;;;2.20;2.00;;;26.00;47.50;;;;;;5034594;28;20026;-42
2021/08/05 12:25:20;;;;;;;3.53;1.98;;;26.10;46.70;;;;;;5034401;28;20573;-40
2021/08/05 12:27:53;;;;;;;4.88;2.20;;;26.00;46.80;;;;;;5033143;28;20072;-40
2021/08/05 12:30:18;;;;;;;2.83;2.05;;;26.00;46.90;;;;;;5048211;28;20052;-40
2021/08/05 12:32:59;;;;;;;2.13;1.92;;;26.00;46.70;;;;;;5054147;28;20400;-42
2021/08/05 12:35:24;;;;;;;3.03;2.08;;;26.00;46.50;;;;;;5053204;28;20033;-41
2021/08/05 12:38:10;;;;;;;2.03;1.83;;;25.90;47.00;;;;;;5054011;28;20021;-40
2021/08/05 12:40:41;;;;;;;4.82;2.35;;;25.80;47.00;;;;;;5053864;28;20367;-40
2021/08/05 12:43:09;;;;;;;5.03;2.42;;;25.60;47.60;;;;;;5053736;28;20082;-41
2021/08/05 12:45:37;;;;;;;3.35;2.00;;;25.60;47.90;;;;;;5052213;28;20371;-40
2021/08/05 12:48:04;;;;;;;4.85;2.28;;;25.60;47.90;;;;;;5051881;28;20022;-41
2021/08/05 12:50:31;;;;;;;2.03;1.80;;;25.60;47.50;;;;;;5051343;28;20029;-42